Hyde Park, Ohio
Current Conditions -  °F | °C
As of 3:53 PM on Thursday 23 Oct 2014 (Local Time) from KLUK Reporting Station
Clear Clear  
Wind Chill: 60°   Ceiling: Unl
Heat Index: 60°   Visibility: 10mi
Dew Point: 41°   Wind: 0mph
Humidity: 49%   Direction: NA
Pressure: 30.16"   Gusts: NA
Location:  39.1347°N, 84.4352°W
Report Text: KLUK 231953Z 00000KT 10SM CLR 16/05 A3016 RMK AO2 SLP215 T01560050
Loading
Personal Weather Stations






























Interactive Weather Map
Tropical Storm Tracking
New forecast layout! Learn more

10-Day Weather Forecast

Advertisements
Track Severe Weather on mobile